Time;durP1;ratioP1;P1;durP2;ratioP2;P2;SDS_P1;SDS_P2;PMS_P1;PMS_P2;Temp;Humidity;BMP_temperature;BMP_pressure;BME280_temperature;BME280_humidity;BME280_pressure;Samples;Min_cycle;Max_cycle;Signal;HPM_P1;HPM_P2
2022/07/24 00:00:16;;;;;;;0.30;0.30;;;20.30;1.00;;;;;;5036543;28;20167;-79
2022/07/24 00:02:43;;;;;;;0.30;0.30;;;20.30;1.00;;;;;;5035619;28;20200;-79
2022/07/24 00:05:09;;;;;;;0.30;0.30;;;20.30;1.00;;;;;;5034764;28;20176;-79
2022/07/24 00:07:36;;;;;;;0.40;0.40;;;20.30;1.00;;;;;;5034741;28;20172;-79
2022/07/24 00:10:03;;;;;;;0.30;0.30;;;20.40;1.00;;;;;;5034094;28;20187;-79
2022/07/24 00:12:29;;;;;;;0.20;0.20;;;20.30;1.00;;;;;;5034372;28;20230;-79
2022/07/24 00:14:55;;;;;;;0.30;0.30;;;20.30;1.00;;;;;;5033856;28;20171;-79
2022/07/24 00:17:20;;;;;;;0.30;0.30;;;20.30;1.00;;;;;;5034085;28;20548;-79
2022/07/24 00:19:46;;;;;;;0.40;0.40;;;20.30;1.00;;;;;;5033393;28;20672;-79
2022/07/24 00:22:11;;;;;;;0.30;0.30;;;20.10;1.00;;;;;;5033522;28;20216;-79
2022/07/24 00:24:37;;;;;;;0.30;0.30;;;20.10;1.00;;;;;;5034176;28;20172;-78
2022/07/24 00:27:02;;;;;;;0.20;0.20;;;20.10;1.00;;;;;;5043900;28;20188;-78
2022/07/24 00:29:28;;;;;;;0.30;0.30;;;20.00;1.00;;;;;;5041984;28;20186;-79
2022/07/24 00:31:54;;;;;;;0.27;0.27;;;19.90;1.00;;;;;;5042573;28;20179;-78
2022/07/24 00:34:19;;;;;;;0.30;0.30;;;19.90;1.00;;;;;;5040666;28;20222;-78
2022/07/24 00:36:45;;;;;;;0.30;0.30;;;19.90;1.00;;;;;;5043461;28;20195;-78
2022/07/24 00:39:11;;;;;;;0.30;0.30;;;19.90;1.00;;;;;;5040959;28;20239;-78
2022/07/24 00:41:37;;;;;;;0.30;0.30;;;19.80;1.00;;;;;;5042221;28;20179;-79
2022/07/24 00:44:12;;;;;;;0.30;0.30;;;19.70;1.00;;;;;;5039536;28;20203;-78
2022/07/24 00:46:39;;;;;;;0.30;0.30;;;19.70;1.00;;;;;;5040104;28;20215;-78
2022/07/24 00:49:08;;;;;;;0.30;0.30;;;19.70;1.00;;;;;;5038891;28;20179;-77
2022/07/24 00:51:34;;;;;;;0.37;0.37;;;19.70;1.00;;;;;;5037862;28;20180;-78
2022/07/24 00:54:03;;;;;;;0.30;0.30;;;19.70;1.00;;;;;;5038552;28;20222;-78
2022/07/24 00:56:29;;;;;;;0.30;0.30;;;19.60;1.00;;;;;;5037298;28;20258;-78
2022/07/24 00:58:54;;;;;;;0.30;0.30;;;19.60;1.00;;;;;;5034917;28;20835;-78
2022/07/24 01:01:20;;;;;;;0.23;0.23;;;19.60;1.00;;;;;;5034829;28;20176;-78
2022/07/24 01:03:46;;;;;;;0.20;0.20;;;19.60;1.00;;;;;;5037570;28;20206;-78
2022/07/24 01:06:12;;;;;;;0.30;0.30;;;19.60;1.00;;;;;;5037598;28;21009;-78
2022/07/24 01:08:37;;;;;;;0.30;0.30;;;19.50;1.00;;;;;;5035222;28;20195;-78
2022/07/24 01:11:04;;;;;;;0.40;0.40;;;19.60;1.00;;;;;;5035428;28;20180;-79
2022/07/24 01:13:30;;;;;;;0.30;0.30;;;19.50;1.00;;;;;;5034962;28;20188;-78
2022/07/24 01:15:57;;;;;;;0.30;0.30;;;19.50;1.00;;;;;;5036235;28;20271;-78
2022/07/24 01:18:22;;;;;;;0.40;0.40;;;19.50;1.00;;;;;;5035728;28;20219;-78
2022/07/24 01:20:49;;;;;;;0.33;0.33;;;19.40;1.00;;;;;;5034872;28;20501;-78
2022/07/24 01:23:15;;;;;;;0.37;0.37;;;19.40;1.00;;;;;;5035459;28;20227;-79
2022/07/24 01:25:41;;;;;;;0.20;0.20;;;19.30;1.00;;;;;;5035226;28;20182;-77
2022/07/24 01:28:06;;;;;;;0.30;0.30;;;19.30;1.00;;;;;;5034354;28;20621;-78
2022/07/24 01:30:32;;;;;;;0.20;0.20;;;19.30;1.00;;;;;;5034184;28;20214;-78
2022/07/24 01:32:58;;;;;;;0.40;0.40;;;19.30;1.00;;;;;;5034896;28;20200;-78
2022/07/24 01:35:24;;;;;;;0.30;0.30;;;19.20;1.00;;;;;;5035083;28;20265;-78
2022/07/24 01:37:51;;;;;;;0.30;0.30;;;19.20;1.00;;;;;;5034412;28;20692;-78
2022/07/24 01:40:16;;;;;;;0.30;0.30;;;19.20;1.00;;;;;;5035182;28;20226;-79
2022/07/24 01:42:42;;;;;;;0.30;0.30;;;19.20;1.00;;;;;;5035255;28;20200;-78
2022/07/24 01:45:08;;;;;;;0.30;0.30;;;19.20;1.00;;;;;;5035534;28;20192;-79
2022/07/24 01:47:34;;;;;;;0.30;0.30;;;19.20;1.00;;;;;;5035256;28;20183;-77
2022/07/24 01:49:59;;;;;;;0.30;0.30;;;19.10;1.00;;;;;;5034060;28;20172;-79
2022/07/24 01:52:25;;;;;;;0.33;0.33;;;19.00;1.00;;;;;;5035057;28;20288;-78
2022/07/24 01:54:51;;;;;;;0.40;0.40;;;18.90;1.00;;;;;;5035568;28;20566;-79
2022/07/24 01:57:17;;;;;;;0.30;0.30;;;18.90;1.00;;;;;;5035547;28;20176;-78
2022/07/24 01:59:43;;;;;;;0.30;0.30;;;18.90;1.00;;;;;;5035216;28;20172;-79
2022/07/24 02:02:08;;;;;;;0.37;0.37;;;18.90;1.00;;;;;;5035094;28;20241;-78
2022/07/24 02:04:34;;;;;;;0.30;0.30;;;18.90;1.00;;;;;;5035381;28;20210;-79
2022/07/24 02:06:59;;;;;;;0.30;0.30;;;18.90;1.00;;;;;;5035018;28;20175;-79
2022/07/24 02:09:25;;;;;;;0.40;0.40;;;18.80;6.50;;;;;;5034704;28;20178;-78
2022/07/24 02:11:51;;;;;;;0.30;0.30;;;18.80;24.20;;;;;;5035108;28;20176;-78
2022/07/24 02:14:17;;;;;;;0.30;0.30;;;18.80;6.30;;;;;;5035290;28;20172;-78
2022/07/24 02:16:42;;;;;;;0.30;0.30;;;18.80;1.00;;;;;;5034858;28;20191;-78
2022/07/24 02:19:08;;;;;;;0.30;0.30;;;18.80;1.00;;;;;;5033483;28;20220;-78
2022/07/24 02:21:33;;;;;;;0.40;0.40;;;18.80;1.00;;;;;;5033565;28;20653;-77
2022/07/24 02:23:59;;;;;;;0.40;0.40;;;18.90;1.00;;;;;;5033634;28;20192;-78
2022/07/24 02:26:24;;;;;;;0.30;0.30;;;18.80;1.00;;;;;;5034126;28;20180;-78
2022/07/24 02:28:50;;;;;;;0.30;0.30;;;18.80;1.00;;;;;;5033532;28;20186;-78
2022/07/24 02:31:16;;;;;;;0.37;0.37;;;18.80;1.00;;;;;;5033758;28;20172;-77
2022/07/24 02:33:42;;;;;;;0.30;0.30;;;18.80;1.00;;;;;;5033355;28;20196;-78
2022/07/24 02:36:08;;;;;;;0.30;0.30;;;18.80;1.00;;;;;;5033327;28;20198;-78
2022/07/24 02:38:33;;;;;;;0.40;0.40;;;18.80;1.00;;;;;;5033149;28;20681;-77
2022/07/24 02:40:59;;;;;;;0.30;0.30;;;18.70;1.00;;;;;;5033073;28;20180;-78
2022/07/24 02:43:24;;;;;;;0.30;0.30;;;18.70;1.00;;;;;;5033371;28;20203;-78
2022/07/24 02:45:50;;;;;;;0.30;0.30;;;18.70;1.00;;;;;;5033404;28;20699;-78
2022/07/24 02:48:16;;;;;;;0.30;0.30;;;18.40;1.00;;;;;;5033435;28;20229;-78
2022/07/24 02:50:41;;;;;;;0.30;0.30;;;18.60;1.00;;;;;;5032674;28;20172;-78
2022/07/24 02:53:07;;;;;;;0.30;0.30;;;18.50;1.00;;;;;;5032876;28;20270;-77
2022/07/24 02:55:32;;;;;;;0.30;0.30;;;18.50;1.00;;;;;;5033194;28;20233;-78
2022/07/24 02:57:58;;;;;;;0.30;0.30;;;18.40;1.00;;;;;;5032714;28;20296;-78
2022/07/24 03:00:24;;;;;;;0.30;0.30;;;18.40;1.00;;;;;;5032705;28;20168;-78
2022/07/24 03:02:49;;;;;;;0.30;0.30;;;18.40;1.00;;;;;;5032764;28;20199;-79
2022/07/24 03:05:15;;;;;;;0.30;0.30;;;18.40;1.00;;;;;;5032766;28;20267;-77
2022/07/24 03:07:41;;;;;;;0.30;0.30;;;18.40;1.00;;;;;;5032616;28;20258;-78
2022/07/24 03:10:09;;;;;;;0.40;0.40;;;18.40;1.00;;;;;;5032110;28;20190;-77
2022/07/24 03:12:35;;;;;;;0.30;0.30;;;18.40;1.00;;;;;;5032176;28;20191;-78
2022/07/24 03:15:01;;;;;;;0.30;0.30;;;18.40;1.00;;;;;;5032557;28;20230;-77
2022/07/24 03:17:26;;;;;;;0.30;0.30;;;18.40;1.00;;;;;;5032550;28;20481;-77
2022/07/24 03:19:52;;;;;;;0.40;0.40;;;18.30;1.00;;;;;;5032372;28;20184;-78
2022/07/24 03:22:18;;;;;;;0.40;0.40;;;18.20;1.00;;;;;;5032960;28;20238;-78
2022/07/24 03:24:43;;;;;;;0.30;0.30;;;18.20;1.00;;;;;;5032380;28;20182;-78
2022/07/24 03:27:09;;;;;;;0.30;0.30;;;18.20;1.00;;;;;;5032380;28;20179;-77
2022/07/24 03:29:34;;;;;;;0.30;0.30;;;18.10;4.00;;;;;;5032743;28;20168;-78
2022/07/24 03:32:00;;;;;;;0.40;0.40;;;18.10;14.60;;;;;;5033404;28;20191;-77
2022/07/24 03:34:26;;;;;;;0.20;0.20;;;18.10;21.50;;;;;;5032590;28;20672;-77
2022/07/24 03:36:51;;;;;;;0.30;0.30;;;18.10;27.00;;;;;;5032280;28;20176;-78
2022/07/24 03:39:17;;;;;;;0.30;0.30;;;18.10;23.20;;;;;;5031980;28;20211;-78
2022/07/24 03:41:43;;;;;;;0.40;0.40;;;18.20;76.00;;;;;;5032389;28;20176;-78
2022/07/24 03:44:08;;;;;;;0.30;0.30;;;18.10;61.40;;;;;;5032627;28;20180;-77
2022/07/24 03:46:34;;;;;;;0.40;0.40;;;18.10;67.00;;;;;;5031943;28;20171;-77
2022/07/24 03:49:00;;;;;;;0.30;0.30;;;18.10;63.00;;;;;;5031501;28;20176;-78
2022/07/24 03:51:25;;;;;;;0.30;0.30;;;18.10;49.60;;;;;;5031955;28;20179;-78
2022/07/24 03:53:51;;;;;;;0.37;0.37;;;18.10;41.70;;;;;;5032267;28;20200;-78
2022/07/24 03:56:16;;;;;;;0.30;0.30;;;18.10;74.90;;;;;;5032004;28;20176;-77
2022/07/24 03:58:42;;;;;;;0.40;0.40;;;18.00;90.50;;;;;;5031921;28;20215;-78
2022/07/24 04:01:08;;;;;;;0.40;0.40;;;17.90;67.10;;;;;;5031474;28;20176;-77
2022/07/24 04:03:34;;;;;;;0.30;0.30;;;17.90;67.00;;;;;;5031977;28;20199;-77
2022/07/24 04:06:04;;;;;;;0.30;0.30;;;17.90;68.10;;;;;;5031879;28;20181;-77
2022/07/24 04:08:29;;;;;;;0.40;0.40;;;17.90;54.60;;;;;;5031606;28;20191;-77
2022/07/24 04:10:58;;;;;;;0.30;0.30;;;18.00;71.90;;;;;;5031608;28;20175;-78
2022/07/24 04:13:25;;;;;;;0.30;0.30;;;17.90;71.10;;;;;;5031969;28;20664;-78
2022/07/24 04:15:51;;;;;;;0.30;0.30;;;17.90;34.20;;;;;;5033685;28;20175;-78
2022/07/24 04:18:16;;;;;;;0.30;0.30;;;17.90;37.10;;;;;;5040609;28;20223;-79
2022/07/24 04:20:42;;;;;;;0.30;0.30;;;18.00;36.80;;;;;;5034316;28;20190;-79
2022/07/24 04:23:07;;;;;;;0.30;0.30;;;18.00;35.80;;;;;;5034513;28;20287;-79
2022/07/24 04:25:34;;;;;;;0.40;0.40;;;18.10;33.60;;;;;;5034402;28;20179;-78
2022/07/24 04:28:00;;;;;;;0.40;0.40;;;18.10;22.50;;;;;;5034365;28;20653;-79
2022/07/24 04:30:26;;;;;;;0.20;0.20;;;18.10;26.90;;;;;;5034201;28;20176;-78
2022/07/24 04:32:52;;;;;;;0.30;0.30;;;18.20;24.80;;;;;;5034430;28;20206;-78
2022/07/24 04:35:17;;;;;;;0.40;0.40;;;18.20;24.10;;;;;;5034019;28;20222;-79
2022/07/24 04:37:43;;;;;;;0.33;0.33;;;18.30;35.30;;;;;;5037047;28;20204;-78
2022/07/24 04:40:09;;;;;;;0.30;0.30;;;18.30;42.70;;;;;;5037345;28;20207;-78
2022/07/24 04:42:35;;;;;;;0.33;0.33;;;18.50;38.70;;;;;;5037767;28;20203;-78
2022/07/24 04:45:00;;;;;;;0.30;0.30;;;18.50;31.00;;;;;;5037815;28;20190;-78
2022/07/24 04:47:26;;;;;;;0.30;0.30;;;18.60;28.60;;;;;;5037683;28;20183;-78
2022/07/24 04:49:51;;;;;;;0.30;0.30;;;18.70;53.90;;;;;;5037086;28;20212;-79
2022/07/24 04:52:17;;;;;;;0.40;0.40;;;18.80;94.60;;;;;;5037856;28;20326;-78
2022/07/24 04:54:42;;;;;;;0.30;0.30;;;18.80;54.80;;;;;;5036998;28;20176;-79
2022/07/24 04:57:08;;;;;;;0.30;0.30;;;18.90;68.60;;;;;;5036676;28;20218;-78
2022/07/24 04:59:34;;;;;;;0.30;0.30;;;19.00;86.00;;;;;;5035820;28;20211;-78
2022/07/24 05:01:59;;;;;;;0.30;0.30;;;19.20;60.00;;;;;;5036300;28;20225;-77
2022/07/24 05:04:25;;;;;;;0.30;0.30;;;19.20;51.20;;;;;;5036026;28;20203;-78
2022/07/24 05:06:50;;;;;;;0.30;0.30;;;19.20;45.60;;;;;;5036701;28;20206;-78
2022/07/24 05:09:16;;;;;;;0.30;0.30;;;19.10;36.90;;;;;;5035952;28;20198;-78
2022/07/24 05:11:42;;;;;;;0.30;0.30;;;19.20;53.00;;;;;;5036409;28;20202;-77
2022/07/24 05:14:07;;;;;;;0.20;0.20;;;19.20;48.40;;;;;;5035677;28;20641;-79
2022/07/24 05:16:33;;;;;;;0.23;0.23;;;19.40;45.10;;;;;;5036351;28;20573;-78
2022/07/24 05:18:58;;;;;;;0.30;0.30;;;19.50;39.70;;;;;;5035201;28;20243;-78
2022/07/24 05:21:24;;;;;;;0.30;0.30;;;19.60;23.40;;;;;;5036057;28;20172;-78
2022/07/24 05:23:49;;;;;;;0.30;0.30;;;19.70;1.00;;;;;;5035896;28;20195;-79
2022/07/24 05:26:15;;;;;;;0.33;0.33;;;19.60;1.00;;;;;;5036288;28;20637;-79
2022/07/24 05:28:41;;;;;;;0.30;0.30;;;19.60;4.80;;;;;;5036852;28;20199;-79
2022/07/24 05:31:08;;;;;;;0.30;0.30;;;19.60;10.90;;;;;;5036343;28;20249;-78
2022/07/24 05:33:34;;;;;;;0.40;0.40;;;19.60;12.00;;;;;;5035986;28;20192;-79
2022/07/24 05:35:59;;;;;;;0.23;0.23;;;19.50;18.30;;;;;;5036807;28;20180;-78
2022/07/24 05:38:25;;;;;;;0.40;0.40;;;19.70;6.60;;;;;;5036638;28;20225;-79
2022/07/24 05:40:50;;;;;;;0.30;0.30;;;19.70;7.20;;;;;;5036230;28;20259;-78
2022/07/24 05:43:16;;;;;;;0.40;0.40;;;19.80;1.00;;;;;;5035441;28;20200;-78
2022/07/24 05:45:42;;;;;;;0.30;0.30;;;20.00;1.00;;;;;;5035703;28;20195;-78
2022/07/24 05:48:08;;;;;;;0.30;0.30;;;20.00;1.00;;;;;;5035696;28;20230;-78
2022/07/24 05:50:33;;;;;;;0.30;0.30;;;20.20;1.00;;;;;;5036039;28;20235;-79
2022/07/24 05:52:59;;;;;;;0.30;0.30;;;20.20;1.00;;;;;;5036355;28;20661;-79
2022/07/24 05:55:24;;;;;;;0.40;0.40;;;20.40;1.00;;;;;;5036360;28;20818;-79
2022/07/24 05:57:50;;;;;;;0.30;0.30;;;20.40;1.00;;;;;;5037190;28;20211;-79
2022/07/24 06:00:18;;;;;;;0.20;0.20;;;20.40;1.00;;;;;;5036963;28;20629;-80
2022/07/24 06:02:48;;;;;;;0.30;0.30;;;20.50;1.00;;;;;;5037980;28;20195;-79
2022/07/24 06:05:14;;;;;;;0.30;0.30;;;20.70;1.00;;;;;;5039053;28;20237;-80
2022/07/24 06:07:41;;;;;;;0.40;0.40;;;20.60;1.00;;;;;;5040302;28;20576;-79
2022/07/24 06:10:07;;;;;;;0.20;0.20;;;20.50;1.00;;;;;;5039319;28;20176;-79
2022/07/24 06:12:33;;;;;;;0.30;0.30;;;20.50;1.00;;;;;;5034886;28;20225;-78
2022/07/24 06:14:59;;;;;;;0.30;0.30;;;20.60;1.00;;;;;;5033200;28;20179;-80
2022/07/24 06:17:24;;;;;;;0.30;0.30;;;20.60;1.00;;;;;;5033390;28;20211;-78
2022/07/24 06:19:50;;;;;;;0.30;0.30;;;20.80;1.00;;;;;;5032856;28;20184;-76
2022/07/24 06:22:15;;;;;;;0.30;0.30;;;20.90;1.00;;;;;;5036259;28;20198;-81
2022/07/24 06:24:41;;;;;;;0.30;0.30;;;21.20;1.00;;;;;;5035243;28;20289;-79
2022/07/24 06:27:07;;;;;;;0.30;0.30;;;21.40;1.00;;;;;;5035088;28;20164;-79
2022/07/24 06:29:33;;;;;;;0.40;0.40;;;21.60;99.90;;;;;;5034198;28;20179;-79
2022/07/24 06:31:59;;;;;;;0.30;0.30;;;21.80;99.90;;;;;;5033332;28;21025;-78
2022/07/24 06:34:24;;;;;;;0.30;0.30;;;21.70;99.90;;;;;;5034051;28;20547;-78
2022/07/24 06:36:51;;;;;;;0.30;0.30;;;21.50;99.90;;;;;;5032730;28;20253;-79
2022/07/24 06:39:17;;;;;;;0.20;0.20;;;21.50;1.00;;;;;;5033917;28;20688;-80
2022/07/24 06:41:43;;;;;;;0.30;0.30;;;21.50;1.00;;;;;;5036569;28;20652;-78
2022/07/24 06:44:09;;;;;;;0.30;0.30;;;21.60;99.90;;;;;;5035724;28;20180;-78
2022/07/24 06:46:34;;;;;;;0.30;0.30;;;21.70;99.90;;;;;;5035170;28;20176;-79
2022/07/24 06:49:00;;;;;;;0.20;0.20;;;21.80;99.90;;;;;;5049384;23;20219;-79
2022/07/24 06:51:25;;;;;;;0.20;0.20;;;21.90;99.90;;;;;;5036743;28;20191;-79
2022/07/24 06:53:51;;;;;;;0.30;0.30;;;22.10;1.00;;;;;;5042195;28;20299;-81
2022/07/24 06:56:17;;;;;;;0.30;0.30;;;22.20;70.50;;;;;;5039556;28;20183;-79
2022/07/24 06:58:42;;;;;;;0.30;0.30;;;22.30;1.00;;;;;;5040761;28;20223;-78
2022/07/24 07:01:08;;;;;;;0.30;0.30;;;22.40;1.00;;;;;;5040657;28;20192;-78
2022/07/24 07:03:33;;;;;;;0.30;0.30;;;22.40;1.00;;;;;;5040579;28;20691;-77
2022/07/24 07:05:59;;;;;;;0.30;0.30;;;22.40;1.00;;;;;;5032389;28;20189;-76
2022/07/24 07:08:24;;;;;;;0.30;0.30;;;22.40;1.00;;;;;;5031528;28;20556;-76
2022/07/24 07:10:50;;;;;;;0.20;0.20;;;22.40;1.00;;;;;;5032049;28;20176;-77
2022/07/24 07:13:15;;;;;;;0.30;0.30;;;22.60;99.90;;;;;;5035037;28;20225;-75
2022/07/24 07:15:41;;;;;;;0.30;0.30;;;22.80;1.00;;;;;;5035910;28;20172;-78
2022/07/24 07:18:06;;;;;;;0.20;0.20;;;23.00;99.90;;;;;;5036531;28;20621;-77
2022/07/24 07:20:32;;;;;;;0.30;0.30;;;23.20;1.00;;;;;;5035507;28;20266;-77
2022/07/24 07:22:58;;;;;;;0.30;0.30;;;23.40;24.40;;;;;;5034894;28;20562;-77
2022/07/24 07:25:23;;;;;;;0.33;0.33;;;23.50;1.00;;;;;;5036067;28;20187;-78
2022/07/24 07:27:49;;;;;;;0.30;0.30;;;23.70;1.00;;;;;;5034942;28;20207;-77
2022/07/24 07:30:14;;;;;;;0.30;0.30;;;23.90;1.00;;;;;;5037962;28;20194;-78
2022/07/24 07:32:41;;;;;;;0.37;0.37;;;24.00;1.00;;;;;;5035105;28;20556;-79
2022/07/24 07:35:07;;;;;;;0.20;0.20;;;24.00;1.00;;;;;;5033518;28;20192;-77
2022/07/24 07:37:32;;;;;;;0.30;0.30;;;24.30;99.90;;;;;;5034908;28;20266;-78
2022/07/24 07:39:58;;;;;;;0.30;0.30;;;24.60;99.90;;;;;;5034205;28;20585;-77
2022/07/24 07:42:24;;;;;;;0.40;0.40;;;24.60;66.80;;;;;;5034363;28;20195;-77
2022/07/24 07:44:50;;;;;;;0.30;0.30;;;24.80;1.00;;;;;;5035256;28;20218;-77
2022/07/24 07:47:16;;;;;;;0.30;0.30;;;25.00;1.00;;;;;;5036326;28;20168;-76
2022/07/24 07:49:41;;;;;;;0.30;0.30;;;25.30;1.00;;;;;;5034205;28;20199;-78
2022/07/24 07:52:07;;;;;;;0.23;0.23;;;25.40;1.00;;;;;;5032168;28;20571;-77
2022/07/24 07:54:32;;;;;;;0.30;0.30;;;25.90;1.00;;;;;;5033155;28;20241;-77
2022/07/24 07:56:58;;;;;;;0.27;0.27;;;26.60;1.00;;;;;;5032939;28;20187;-77
2022/07/24 07:59:23;;;;;;;0.37;0.37;;;27.20;1.00;;;;;;5033200;28;20551;-76
2022/07/24 08:01:49;;;;;;;0.33;0.33;;;27.70;1.00;;;;;;5032804;28;20643;-77
2022/07/24 08:04:15;;;;;;;0.47;0.47;;;28.10;1.00;;;;;;5032109;28;20176;-77
2022/07/24 08:06:40;;;;;;;0.43;0.43;;;28.30;1.00;;;;;;5032116;28;20184;-78
2022/07/24 08:09:06;;;;;;;0.50;0.50;;;28.20;1.00;;;;;;5031602;28;20242;-79
2022/07/24 08:11:32;;;;;;;0.50;0.50;;;28.30;1.00;;;;;;5032630;28;20179;-78
2022/07/24 08:13:58;;;;;;;0.60;0.60;;;28.50;1.00;;;;;;5036491;28;20196;-77
2022/07/24 08:16:24;;;;;;;0.50;0.50;;;28.90;1.00;;;;;;5036707;28;20237;-78
2022/07/24 08:18:50;;;;;;;0.60;0.60;;;29.20;1.00;;;;;;5037874;28;20207;-78
2022/07/24 08:21:17;;;;;;;0.60;0.60;;;29.40;1.00;;;;;;5039145;28;20602;-77
2022/07/24 08:23:46;;;;;;;0.50;0.50;;;29.70;1.00;;;;;;5036321;28;20669;-78
2022/07/24 08:26:12;;;;;;;0.70;0.70;;;29.70;1.00;;;;;;5037246;28;20176;-78
2022/07/24 08:28:38;;;;;;;0.50;0.50;;;30.00;1.00;;;;;;5038465;28;20676;-77
2022/07/24 08:31:04;;;;;;;0.70;0.70;;;30.10;1.00;;;;;;5037543;28;20207;-78
2022/07/24 08:33:29;;;;;;;0.60;0.60;;;30.30;1.00;;;;;;5039757;28;20195;-78
2022/07/24 08:35:55;;;;;;;0.60;0.60;;;30.60;1.00;;;;;;5038322;28;20179;-78
2022/07/24 08:38:20;;;;;;;0.60;0.60;;;31.00;1.00;;;;;;5037722;28;20253;-80
2022/07/24 08:40:46;;;;;;;0.60;0.60;;;31.00;1.00;;;;;;5038258;28;20238;-78
2022/07/24 08:43:12;;;;;;;0.60;0.60;;;31.10;1.00;;;;;;5037767;28;20191;-78
2022/07/24 08:45:41;;;;;;;0.50;0.50;;;31.40;1.00;;;;;;5038336;28;20179;-78
2022/07/24 08:48:09;;;;;;;0.60;0.60;;;31.30;1.00;;;;;;5038821;28;20664;-78
2022/07/24 08:50:38;;;;;;;0.60;0.60;;;31.00;1.00;;;;;;5036647;28;20225;-77
2022/07/24 08:53:04;;;;;;;0.40;0.40;;;31.50;1.00;;;;;;5037243;28;20199;-81
2022/07/24 08:55:30;;;;;;;0.57;0.57;;;31.10;1.00;;;;;;5039285;28;20186;-81
2022/07/24 08:57:57;;;;;;;0.50;0.50;;;31.20;1.00;;;;;;5039405;28;20203;-80
2022/07/24 09:00:23;;;;;;;0.50;0.50;;;31.50;1.00;;;;;;5040068;28;20184;-82
2022/07/24 09:02:49;;;;;;;0.60;0.60;;;31.60;1.00;;;;;;5039666;28;20198;-80
2022/07/24 09:05:15;;;;;;;0.60;0.60;;;31.90;1.00;;;;;;5039644;28;20176;-82
2022/07/24 09:07:40;;;;;;;0.52;0.52;;;32.10;1.00;;;;;;5037915;28;20176;-82
2022/07/24 09:10:07;;;;;;;0.60;0.60;;;32.30;1.00;;;;;;5035082;28;20188;-78
2022/07/24 09:12:38;;;;;;;0.52;0.52;;;32.40;1.00;;;;;;5035006;28;20291;-81
2022/07/24 09:15:12;;;;;;;0.60;0.60;;;32.40;1.00;;;;;;5036146;28;20596;-79
2022/07/24 09:17:49;;;;;;;0.50;0.50;;;32.20;1.00;;;;;;5036139;28;20192;-79
2022/07/24 09:20:15;;;;;;;0.50;0.50;;;31.80;1.00;;;;;;5035120;28;20183;-79
2022/07/24 09:22:42;;;;;;;0.50;0.50;;;31.60;1.00;;;;;;5036318;28;20573;-80
2022/07/24 09:25:12;;;;;;;0.50;0.50;;;31.00;1.00;;;;;;5036473;28;20184;-79
2022/07/24 09:27:58;;;;;;;0.40;0.40;;;31.10;1.00;;;;;;5035996;28;20184;-78
2022/07/24 09:30:28;;;;;;;0.40;0.40;;;31.80;1.00;;;;;;5035707;28;20667;-77
2022/07/24 09:33:01;;;;;;;0.55;0.55;;;32.70;1.00;;;;;;5035021;28;20195;-79
2022/07/24 09:35:37;;;;;;;0.60;0.60;;;33.10;1.00;;;;;;5037120;28;20226;-79
2022/07/24 09:38:05;;;;;;;0.50;0.50;;;33.50;1.00;;;;;;5037819;28;20199;-81
2022/07/24 09:40:36;;;;;;;0.60;0.60;;;33.20;1.00;;;;;;5038108;28;20198;-79
2022/07/24 09:43:22;;;;;;;0.60;0.60;;;33.10;1.00;;;;;;5038845;28;20340;-79
2022/07/24 09:45:59;;;;;;;0.50;0.50;;;32.90;1.00;;;;;;5036585;28;20544;-84
2022/07/24 09:48:28;;;;;;;0.52;0.52;;;33.00;1.00;;;;;;5039074;28;20182;-81
2022/07/24 09:50:56;;;;;;;0.52;0.52;;;32.90;1.00;;;;;;5045669;28;20192;-83
2022/07/24 09:53:32;;;;;;;0.60;0.60;;;33.20;1.00;;;;;;5052135;28;20258;-80
2022/07/24 09:56:03;;;;;;;0.50;0.50;;;33.50;1.00;;;;;;5051718;28;20167;-84
2022/07/24 09:58:31;;;;;;;0.45;0.45;;;33.80;1.00;;;;;;5053974;28;20207;-81
2022/07/24 10:00:59;;;;;;;0.20;0.20;;;34.20;1.00;;;;;;5051846;28;20183;-79
2022/07/24 10:03:30;;;;;;;0.30;0.30;;;33.70;1.00;;;;;;5054334;28;20208;-79
2022/07/24 10:06:04;;;;;;;0.43;0.43;;;33.30;1.00;;;;;;5053464;28;20271;-82
2022/07/24 10:08:31;;;;;;;0.30;0.30;;;33.10;1.00;;;;;;5043235;28;20248;-79
2022/07/24 10:10:57;;;;;;;0.50;0.50;;;33.30;1.00;;;;;;5039820;28;20172;-81
2022/07/24 10:13:24;;;;;;;0.43;0.43;;;33.70;1.00;;;;;;5037229;28;20230;-79
2022/07/24 10:16:13;;;;;;;0.30;0.30;;;33.90;1.00;;;;;;5037343;28;20710;-80
2022/07/24 10:18:52;;;;;;;0.30;0.30;;;34.20;1.00;;;;;;5036477;28;20265;-81
2022/07/24 10:21:20;;;;;;;0.40;0.40;;;33.90;1.00;;;;;;5036192;28;20172;-80
2022/07/24 10:24:07;;;;;;;0.20;0.20;;;34.00;1.00;;;;;;5037045;28;20240;-80
2022/07/24 10:26:40;;;;;;;0.40;0.40;;;34.20;1.00;;;;;;5036763;28;20191;-80
2022/07/24 10:29:14;;;;;;;0.30;0.30;;;34.50;1.00;;;;;;5036153;28;20195;-81
2022/07/24 10:31:42;;;;;;;0.40;0.40;;;34.60;1.00;;;;;;5035720;28;20226;-80
2022/07/24 10:34:31;;;;;;;0.45;0.45;;;34.60;1.00;;;;;;5035796;28;20177;-79
2022/07/24 10:36:59;;;;;;;0.40;0.40;;;34.70;1.00;;;;;;5035918;28;20184;-79
2022/07/24 10:39:33;;;;;;;0.50;0.50;;;33.80;1.00;;;;;;5035721;28;20305;-81
2022/07/24 10:42:04;;;;;;;0.50;0.50;;;33.20;1.00;;;;;;5036366;28;20278;-78
2022/07/24 10:44:30;;;;;;;0.43;0.43;;;33.40;1.00;;;;;;5035837;28;20172;-80
2022/07/24 10:47:04;;;;;;;0.45;0.45;;;33.00;1.00;;;;;;5036216;28;20191;-81
2022/07/24 10:49:50;;;;;;;0.40;0.40;;;32.50;1.00;;;;;;5035187;28;20303;-81
2022/07/24 10:52:23;;;;;;;0.40;0.40;;;32.00;1.00;;;;;;5035804;28;20223;-80
2022/07/24 10:55:22;;;;;;;0.50;0.50;;;32.40;1.00;;;;;;5035591;28;20176;-80
2022/07/24 10:58:12;;;;;;;0.47;0.47;;;33.00;1.00;;;;;;5034235;28;20183;-79
2022/07/24 11:00:41;;;;;;;0.50;0.50;;;33.70;1.00;;;;;;5035288;28;20648;-81
2022/07/24 11:03:22;;;;;;;0.60;0.60;;;33.90;1.00;;;;;;5034726;28;20195;-82
2022/07/24 11:06:07;;;;;;;0.40;0.40;;;34.10;1.00;;;;;;5032964;28;20176;-81
2022/07/24 11:08:40;;;;;;;0.40;0.40;;;34.20;1.00;;;;;;5033888;28;20182;-78
2022/07/24 11:11:08;;;;;;;0.40;0.40;;;34.40;1.00;;;;;;5034668;28;20182;-79
2022/07/24 11:13:34;;;;;;;0.40;0.40;;;34.20;1.00;;;;;;5034362;28;20200;-81
2022/07/24 11:16:11;;;;;;;0.40;0.40;;;33.90;1.00;;;;;;5035411;28;20178;-81
2022/07/24 11:18:47;;;;;;;0.28;0.28;;;34.30;1.00;;;;;;5035592;28;20215;-80
2022/07/24 11:21:35;;;;;;;0.40;0.40;;;34.60;1.00;;;;;;5034448;28;20172;-80
2022/07/24 11:24:25;;;;;;;0.20;0.20;;;34.70;1.00;;;;;;5032583;28;20196;-82
2022/07/24 11:26:56;;;;;;;0.50;0.50;;;34.70;1.00;;;;;;5034420;28;20186;-80
2022/07/24 11:29:26;;;;;;;0.38;0.38;;;34.60;1.00;;;;;;5034419;28;20176;-81
2022/07/24 11:31:58;;;;;;;0.40;0.40;;;34.40;1.00;;;;;;5035071;28;20542;-78
2022/07/24 11:34:25;;;;;;;0.40;0.40;;;34.50;1.00;;;;;;5035524;28;20264;-81
2022/07/24 11:36:53;;;;;;;0.40;0.40;;;34.80;1.00;;;;;;5035847;28;20187;-80
2022/07/24 11:39:25;;;;;;;0.38;0.38;;;34.80;1.00;;;;;;5034904;28;20268;-79
2022/07/24 11:41:56;;;;;;;0.30;0.30;;;34.80;1.00;;;;;;5033921;28;20546;-80
2022/07/24 11:44:33;;;;;;;0.30;0.30;;;34.30;1.00;;;;;;5035396;28;20633;-81
2022/07/24 11:47:19;;;;;;;0.40;0.40;;;33.40;1.00;;;;;;5034371;28;20182;-79
2022/07/24 11:49:54;;;;;;;0.30;0.30;;;32.80;1.00;;;;;;5034475;28;20218;-79
2022/07/24 11:52:27;;;;;;;0.50;0.50;;;32.90;1.00;;;;;;5032169;28;20206;-79
2022/07/24 11:54:55;;;;;;;0.40;0.40;;;33.30;1.00;;;;;;5033966;28;20176;-80
2022/07/24 11:57:25;;;;;;;0.50;0.50;;;33.30;1.00;;;;;;5034717;28;20168;-83
2022/07/24 11:59:51;;;;;;;0.57;0.57;;;33.30;1.00;;;;;;5032812;28;20322;-81
2022/07/24 12:02:18;;;;;;;0.40;0.40;;;33.30;1.00;;;;;;5036690;28;20215;-78
2022/07/24 12:04:45;;;;;;;0.50;0.50;;;33.40;1.00;;;;;;5037368;28;20202;-82
2022/07/24 12:07:17;;;;;;;0.30;0.30;;;33.30;1.00;;;;;;5034731;28;20176;-79
2022/07/24 12:09:48;;;;;;;0.40;0.40;;;33.50;1.00;;;;;;5033465;28;20242;-80
2022/07/24 12:12:37;;;;;;;0.50;0.50;;;33.50;1.00;;;;;;5032291;28;20203;-80
2022/07/24 12:15:05;;;;;;;0.40;0.40;;;33.80;1.00;;;;;;5033037;28;20633;-79
2022/07/24 12:17:32;;;;;;;0.40;0.40;;;33.70;1.00;;;;;;5034371;28;20221;-79
2022/07/24 12:20:00;;;;;;;0.40;0.40;;;33.50;1.00;;;;;;5031217;28;20215;-79
2022/07/24 12:22:27;;;;;;;0.50;0.50;;;33.50;1.00;;;;;;5025127;28;20262;-80
2022/07/24 12:24:55;;;;;;;0.40;0.40;;;33.60;1.00;;;;;;5037519;28;20183;-77
2022/07/24 12:27:35;;;;;;;0.50;0.50;;;33.80;1.00;;;;;;5029613;28;20175;-78
2022/07/24 12:30:01;;;;;;;0.40;0.40;;;33.90;1.00;;;;;;5025808;28;20176;-78
2022/07/24 12:32:27;;;;;;;0.40;0.40;;;34.10;1.00;;;;;;5030164;28;20269;-77
2022/07/24 12:34:52;;;;;;;0.32;0.32;;;34.40;1.00;;;;;;5032031;28;20649;-79
2022/07/24 12:37:20;;;;;;;0.30;0.30;;;34.30;1.00;;;;;;5031591;28;20176;-78
2022/07/24 12:39:50;;;;;;;0.22;0.22;;;34.40;1.00;;;;;;5031118;28;20211;-79
2022/07/24 12:42:17;;;;;;;0.55;0.55;;;34.20;1.00;;;;;;5030434;28;20290;-79
2022/07/24 12:44:44;;;;;;;0.40;0.40;;;34.10;1.00;;;;;;5031533;28;20190;-79
2022/07/24 12:47:13;;;;;;;0.40;0.40;;;33.90;1.00;;;;;;5034746;28;20188;-78
2022/07/24 12:49:43;;;;;;;0.20;0.20;;;34.00;1.00;;;;;;5032332;28;20196;-79
2022/07/24 12:52:24;;;;;;;0.40;0.40;;;33.90;1.00;;;;;;5031377;28;20294;-78
2022/07/24 12:54:51;;;;;;;0.40;0.40;;;33.90;1.00;;;;;;5032699;28;20180;-80
2022/07/24 12:57:21;;;;;;;0.43;0.43;;;33.20;1.00;;;;;;5033171;28;20176;-80